createdAt,value
2022-10-23T00:00:59.138Z,100212.52
2022-10-23T00:03:40.750Z,100212.07
2022-10-23T00:06:13.492Z,100210.10
2022-10-23T00:08:47.402Z,100203.34
2022-10-23T00:11:23.130Z,100204.41
2022-10-23T00:13:58.518Z,100201.17
2022-10-23T00:16:32.259Z,100196.49
2022-10-23T00:19:06.189Z,100189.04
2022-10-23T00:21:39.626Z,100181.91
2022-10-23T00:24:12.522Z,100172.64
2022-10-23T00:26:45.687Z,100162.97
2022-10-23T00:29:18.658Z,100166.15
2022-10-23T00:31:51.297Z,100162.17
2022-10-23T00:34:23.981Z,100156.24
2022-10-23T00:36:56.933Z,100156.12
2022-10-23T00:39:29.809Z,100150.04
2022-10-23T00:42:02.720Z,100152.11
2022-10-23T00:44:35.161Z,100155.64
2022-10-23T00:47:06.228Z,100153.16
2022-10-23T00:49:42.043Z,100152.44
2022-10-23T00:52:17.127Z,100165.80
2022-10-23T00:54:50.099Z,100178.01
2022-10-23T00:57:22.895Z,100193.36
2022-10-23T00:59:55.783Z,100205.63
2022-10-23T01:02:28.342Z,100207.15
2022-10-23T01:05:01.114Z,100208.27
2022-10-23T01:08:00.371Z,100197.11
2022-10-23T01:10:46.366Z,100205.55
2022-10-23T01:13:46.357Z,100204.52
2022-10-23T01:16:35.597Z,100209.40
2022-10-23T01:19:31.172Z,100224.35
2022-10-23T01:22:13.876Z,100231.98
2022-10-23T01:25:03.536Z,100235.34
2022-10-23T01:27:46.939Z,100237.92
2022-10-23T01:30:20.255Z,100239.98
2022-10-23T01:33:10.937Z,100237.02
2022-10-23T01:36:02.304Z,100234.93
2022-10-23T01:39:00.775Z,100240.33
2022-10-23T01:41:36.800Z,100243.95
2022-10-23T01:44:28.582Z,100240.23
2022-10-23T01:47:01.566Z,100237.73
2022-10-23T01:49:38.072Z,100238.02
2022-10-23T01:52:14.252Z,100235.56
2022-10-23T01:54:51.773Z,100233.80
2022-10-23T01:57:27.367Z,100233.11
2022-10-23T02:00:13.208Z,100233.09
2022-10-23T02:02:59.654Z,100235.71
2022-10-23T02:05:39.751Z,100241.19
2022-10-23T02:08:12.945Z,100249.48
2022-10-23T02:10:59.885Z,100247.67
2022-10-23T02:14:19.484Z,100252.11
2022-10-23T02:17:02.192Z,100261.96
2022-10-23T02:19:48.498Z,100262.10
2022-10-23T02:22:36.704Z,100265.19
2022-10-23T02:25:23.286Z,100262.33
2022-10-23T02:28:01.458Z,100268.58
2022-10-23T02:30:40.306Z,100270.77
2022-10-23T02:33:16.305Z,100268.67
2022-10-23T02:35:49.938Z,100267.29
2022-10-23T02:38:47.146Z,100258.63
2022-10-23T02:41:40.602Z,100269.30
2022-10-23T02:44:47.597Z,100265.48
2022-10-23T02:47:42.304Z,100272.22
2022-10-23T02:50:28.386Z,100272.58
2022-10-23T02:53:19.944Z,100274.36
2022-10-23T02:56:19.190Z,100279.49
2022-10-23T02:59:04.160Z,100292.17
2022-10-23T03:01:48.003Z,100293.75
2022-10-23T03:04:26.069Z,100297.77
2022-10-23T03:06:59.923Z,100301.11
2022-10-23T03:09:34.465Z,100302.33
2022-10-23T03:12:07.814Z,100310.55
2022-10-23T03:14:41.109Z,100313.58
2022-10-23T03:17:13.962Z,100313.05
2022-10-23T03:19:47.113Z,100313.42
2022-10-23T03:22:20.806Z,100307.58
2022-10-23T03:24:54.209Z,100322.48
2022-10-23T03:30:10.189Z,100331.48
2022-10-23T03:32:44.367Z,100328.66
2022-10-23T03:35:17.606Z,100338.00
2022-10-23T03:37:50.250Z,100337.67
2022-10-23T03:40:23.201Z,100337.23
2022-10-23T03:42:55.968Z,100334.69
2022-10-23T03:45:29.442Z,100340.29
2022-10-23T03:48:02.320Z,100348.35
2022-10-23T03:50:36.998Z,100359.54
2022-10-23T03:53:11.003Z,100361.67
2022-10-23T03:55:44.351Z,100378.16
2022-10-23T03:58:17.140Z,100375.76
2022-10-23T04:00:50.072Z,100374.84
2022-10-23T04:03:23.339Z,100375.67
2022-10-23T04:05:56.180Z,100369.85
2022-10-23T04:08:29.057Z,100376.02
2022-10-23T04:11:01.998Z,100372.75
2022-10-23T04:13:49.155Z,100383.59
2022-10-23T04:16:22.799Z,100388.48
2022-10-23T04:18:55.649Z,100391.52
2022-10-23T04:21:28.297Z,100392.71
2022-10-23T04:24:01.013Z,100395.20
2022-10-23T04:26:33.830Z,100393.98
2022-10-23T04:29:06.751Z,100386.64
2022-10-23T04:31:39.420Z,100393.85
2022-10-23T04:34:12.288Z,100406.48
2022-10-23T04:36:45.270Z,100404.98
2022-10-23T04:39:18.386Z,100405.77
2022-10-23T04:41:51.037Z,100403.55
2022-10-23T04:44:25.299Z,100397.34
2022-10-23T04:46:57.847Z,100396.09
2022-10-23T04:49:30.218Z,100396.03
2022-10-23T04:52:18.756Z,100389.45
2022-10-23T04:55:11.650Z,100395.48
2022-10-23T04:57:52.641Z,100400.53
2022-10-23T05:00:29.292Z,100406.52
2022-10-23T05:03:02.390Z,100413.30
2022-10-23T05:05:41.737Z,100415.15
2022-10-23T05:08:36.486Z,100424.48
2022-10-23T05:11:30.876Z,100430.80
2022-10-23T05:14:03.496Z,100433.03
2022-10-23T05:16:40.719Z,100434.98
2022-10-23T05:19:19.565Z,100438.72
2022-10-23T05:21:58.857Z,100437.83
2022-10-23T05:24:36.597Z,100445.05
2022-10-23T05:27:09.705Z,100462.14
2022-10-23T05:29:44.499Z,100466.42
2022-10-23T05:32:19.279Z,100472.10
2022-10-23T05:34:52.270Z,100480.00
2022-10-23T05:37:25.121Z,100489.49
2022-10-23T05:40:04.532Z,100495.02
2022-10-23T05:42:40.953Z,100493.45
2022-10-23T05:45:16.407Z,100495.91
2022-10-23T05:48:11.322Z,100499.10
2022-10-23T05:51:22.079Z,100505.98
2022-10-23T05:54:08.571Z,100507.23
2022-10-23T05:56:55.239Z,100512.52
2022-10-23T05:59:36.505Z,100513.65
2022-10-23T06:02:45.867Z,100514.27
2022-10-23T06:05:35.850Z,100515.47
2022-10-23T06:08:45.341Z,100521.02
2022-10-23T06:11:19.121Z,100519.55
2022-10-23T06:14:01.373Z,100516.60
2022-10-23T06:16:33.898Z,100519.39
2022-10-23T06:19:07.143Z,100519.89
2022-10-23T06:21:43.017Z,100522.41
2022-10-23T06:24:17.521Z,100524.33
2022-10-23T06:26:55.539Z,100520.09
2022-10-23T06:29:42.368Z,100519.98
2022-10-23T06:32:15.239Z,100521.00
2022-10-23T06:34:52.720Z,100523.02
2022-10-23T06:37:25.703Z,100527.67
2022-10-23T06:40:12.505Z,100528.77
2022-10-23T06:43:08.861Z,100532.73
2022-10-23T06:46:02.269Z,100534.60
2022-10-23T06:48:59.011Z,100540.80
2022-10-23T06:51:35.408Z,100538.10
2022-10-23T06:54:09.042Z,100540.43
2022-10-23T06:56:59.011Z,100540.63
2022-10-23T06:59:48.603Z,100535.79
2022-10-23T07:02:21.353Z,100532.67
2022-10-23T07:04:54.160Z,100536.05
2022-10-23T07:07:26.974Z,100536.71
2022-10-23T07:09:59.818Z,100537.73
2022-10-23T07:12:45.817Z,100539.34
2022-10-23T07:15:42.922Z,100540.91
2022-10-23T07:18:20.261Z,100548.95
2022-10-23T07:21:14.621Z,100547.39
2022-10-23T07:23:48.020Z,100540.54
2022-10-23T07:26:21.083Z,100553.52
2022-10-23T07:28:55.582Z,100558.29
2022-10-23T07:31:28.874Z,100560.21
2022-10-23T07:34:23.570Z,100562.00
2022-10-23T07:37:07.297Z,100562.86
2022-10-23T07:39:39.858Z,100566.36
2022-10-23T07:42:13.079Z,100567.60
2022-10-23T07:44:46.466Z,100570.36
2022-10-23T07:47:18.896Z,100573.09
2022-10-23T07:49:54.369Z,100580.93
2022-10-23T07:52:28.794Z,100582.67
2022-10-23T07:55:24.746Z,100585.83
2022-10-23T07:58:07.509Z,100587.16
2022-10-23T08:01:06.407Z,100582.17
2022-10-23T08:03:40.339Z,100582.01
2022-10-23T08:06:13.406Z,100588.23
2022-10-23T08:08:46.666Z,100583.20
2022-10-23T08:11:26.520Z,100588.38
2022-10-23T08:14:00.094Z,100594.73
2022-10-23T08:16:37.484Z,100593.88
2022-10-23T08:19:10.771Z,100596.52
2022-10-23T08:21:44.153Z,100600.36
2022-10-23T08:24:18.352Z,100602.54
2022-10-23T08:26:52.640Z,100602.92
2022-10-23T08:29:27.325Z,100604.21
2022-10-23T08:32:00.119Z,100610.18
2022-10-23T08:34:42.591Z,100615.66
2022-10-23T08:37:15.390Z,100619.35
2022-10-23T08:39:50.138Z,100625.28
2022-10-23T08:42:50.185Z,100622.86
2022-10-23T08:45:33.711Z,100625.86
2022-10-23T08:48:39.829Z,100625.50
2022-10-23T08:51:44.445Z,100632.07
2022-10-23T08:54:25.053Z,100630.05
2022-10-23T08:57:05.901Z,100631.22
2022-10-23T08:59:51.884Z,100625.30
2022-10-23T09:02:32.076Z,100625.16
2022-10-23T09:05:04.614Z,100625.66
2022-10-23T09:08:12.054Z,100624.34
2022-10-23T09:11:14.396Z,100619.26
2022-10-23T09:14:03.420Z,100636.73
2022-10-23T09:17:11.087Z,100642.77
2022-10-23T09:19:46.261Z,100639.35
2022-10-23T09:22:18.662Z,100637.47
2022-10-23T09:24:53.863Z,100644.44
2022-10-23T09:27:27.610Z,100645.36
2022-10-23T09:30:00.323Z,100652.55
2022-10-23T09:32:43.946Z,100651.77
2022-10-23T09:35:29.557Z,100650.23
2022-10-23T09:38:02.065Z,100650.30
2022-10-23T09:40:45.210Z,100649.80
2022-10-23T09:43:24.340Z,100659.20
2022-10-23T09:46:04.046Z,100657.29
2022-10-23T09:48:38.314Z,100653.86
2022-10-23T09:51:25.509Z,100648.78
2022-10-23T09:54:01.119Z,100649.36
2022-10-23T09:56:43.434Z,100643.42
2022-10-23T09:59:15.963Z,100652.42
2022-10-23T10:02:04.893Z,100650.77
2022-10-23T10:04:55.446Z,100648.63
2022-10-23T10:07:32.262Z,100652.36
2022-10-23T10:10:16.577Z,100653.04
2022-10-23T10:12:59.121Z,100650.45
2022-10-23T10:15:52.434Z,100647.61
2022-10-23T10:18:34.243Z,100657.86
2022-10-23T10:21:29.603Z,100650.47
2022-10-23T10:24:13.828Z,100647.79
2022-10-23T10:27:09.347Z,100645.95
2022-10-23T10:30:11.694Z,100641.40
2022-10-23T10:32:51.837Z,100636.70
2022-10-23T10:35:43.471Z,100637.73
2022-10-23T10:38:32.447Z,100648.62
2022-10-23T10:41:25.127Z,100651.08
2022-10-23T10:44:03.036Z,100652.86
2022-10-23T10:47:19.968Z,100652.71
2022-10-23T10:50:08.781Z,100653.17
2022-10-23T10:52:53.441Z,100655.03
2022-10-23T10:55:28.951Z,100657.68
2022-10-23T10:58:12.667Z,100659.98
2022-10-23T11:00:49.038Z,100657.91
2022-10-23T11:03:30.293Z,100656.11
2022-10-23T11:06:04.444Z,100654.94
2022-10-23T11:08:56.203Z,100657.77
2022-10-23T11:11:43.036Z,100654.39
2022-10-23T11:14:26.917Z,100654.02
2022-10-23T11:17:10.652Z,100655.30
2022-10-23T11:19:58.103Z,100649.45
2022-10-23T11:22:40.276Z,100651.16
2022-10-23T11:25:41.952Z,100651.27
2022-10-23T11:28:48.432Z,100643.97
2022-10-23T11:32:09.159Z,100639.92
2022-10-23T11:34:52.801Z,100642.47
2022-10-23T11:37:27.285Z,100638.77
2022-10-23T11:40:24.974Z,100645.67
2022-10-23T11:42:57.810Z,100654.74
2022-10-23T11:45:34.024Z,100655.93
2022-10-23T11:48:38.137Z,100658.67
2022-10-23T11:51:40.122Z,100657.69
2022-10-23T11:54:15.533Z,100656.94
2022-10-23T11:57:09.277Z,100656.75
2022-10-23T11:59:51.667Z,100657.59
2022-10-23T12:02:32.528Z,100661.36
2022-10-23T12:05:31.892Z,100663.47
2022-10-23T12:08:07.708Z,100656.69
2022-10-23T12:10:51.134Z,100657.47
2022-10-23T12:13:46.961Z,100648.91
2022-10-23T12:16:19.903Z,100648.34
2022-10-23T12:18:57.489Z,100644.98
2022-10-23T12:21:39.485Z,100638.37
2022-10-23T12:24:22.859Z,100644.05
2022-10-23T12:27:18.145Z,100649.27
2022-10-23T12:30:06.503Z,100648.39
2022-10-23T12:32:56.211Z,100648.71
2022-10-23T12:36:04.065Z,100646.06
2022-10-23T12:38:44.300Z,100645.30
2022-10-23T12:41:19.557Z,100648.17
2022-10-23T12:44:00.903Z,100652.77
2022-10-23T12:46:50.990Z,100654.86
2022-10-23T12:49:26.308Z,100654.23
2022-10-23T12:52:03.431Z,100647.90
2022-10-23T12:54:42.060Z,100650.10
2022-10-23T12:57:33.264Z,100646.75
2022-10-23T13:00:11.899Z,100649.06
2022-10-23T13:02:44.600Z,100657.12
2022-10-23T13:05:21.933Z,100663.83
2022-10-23T13:07:55.407Z,100662.05
2022-10-23T13:10:38.065Z,100657.39
2022-10-23T13:13:15.440Z,100659.98
2022-10-23T13:15:48.957Z,100658.34
2022-10-23T13:18:21.934Z,100655.27
2022-10-23T13:20:59.053Z,100656.60
2022-10-23T13:23:36.619Z,100657.98
2022-10-23T13:26:49.767Z,100660.37
2022-10-23T13:29:35.169Z,100661.98
2022-10-23T13:32:36.843Z,100662.06
2022-10-23T13:35:25.058Z,100666.16
2022-10-23T13:37:57.411Z,100667.39
2022-10-23T13:40:31.190Z,100673.74
2022-10-23T13:43:03.645Z,100671.41
2022-10-23T13:45:42.426Z,100672.08
2022-10-23T13:48:16.893Z,100680.98
2022-10-23T13:50:49.526Z,100686.05
2022-10-23T13:53:22.829Z,100694.80
2022-10-23T13:55:58.595Z,100689.80
2022-10-23T13:58:33.397Z,100694.79
2022-10-23T14:01:06.539Z,100695.56
2022-10-23T14:03:39.505Z,100689.59
2022-10-23T14:06:13.131Z,100691.45
2022-10-23T14:08:45.670Z,100699.74
2022-10-23T14:11:19.283Z,100697.74
2022-10-23T14:13:53.275Z,100701.91
2022-10-23T14:16:26.051Z,100701.13
2022-10-23T14:18:59.207Z,100705.14
2022-10-23T14:21:31.919Z,100711.05
2022-10-23T14:24:04.646Z,100718.61
2022-10-23T14:26:37.568Z,100715.20
2022-10-23T14:29:18.434Z,100709.06
2022-10-23T14:31:55.352Z,100701.13
2022-10-23T14:34:28.520Z,100713.30
2022-10-23T14:37:08.531Z,100714.77
2022-10-23T14:39:47.492Z,100717.52
2022-10-23T14:42:23.968Z,100721.73
2022-10-23T14:44:56.780Z,100721.31
2022-10-23T14:47:29.610Z,100714.02
2022-10-23T14:50:02.082Z,100722.48
2022-10-23T14:52:34.598Z,100718.42
2022-10-23T14:55:07.462Z,100722.14
2022-10-23T14:57:39.927Z,100731.21
2022-10-23T15:00:13.269Z,100735.13
2022-10-23T15:02:45.934Z,100739.32
2022-10-23T15:05:18.682Z,100745.69
2022-10-23T15:07:51.305Z,100746.70
2022-10-23T15:10:23.819Z,100750.11
2022-10-23T15:12:56.193Z,100755.15
2022-10-23T15:15:28.632Z,100762.31
2022-10-23T15:18:01.113Z,100768.29
2022-10-23T15:20:34.183Z,100767.30
2022-10-23T15:23:06.860Z,100772.11
2022-10-23T15:25:41.091Z,100771.33
2022-10-23T15:28:15.129Z,100774.02
2022-10-23T15:30:47.891Z,100777.24
2022-10-23T15:33:20.766Z,100777.59
2022-10-23T15:35:54.544Z,100786.41
2022-10-23T15:38:27.406Z,100791.81
2022-10-23T15:41:18.078Z,100794.07
2022-10-23T15:46:28.425Z,100797.20
2022-10-23T15:49:01.031Z,100793.35
2022-10-23T15:51:34.186Z,100796.05
2022-10-23T15:54:13.507Z,100798.79
2022-10-23T15:56:47.449Z,100804.28
2022-10-23T15:59:21.041Z,100805.20
2022-10-23T16:01:53.953Z,100798.72
2022-10-23T16:04:26.426Z,100812.95
2022-10-23T16:06:59.413Z,100820.77
2022-10-23T16:09:33.338Z,100824.88
2022-10-23T16:12:06.003Z,100822.79
2022-10-23T16:14:38.509Z,100828.02
2022-10-23T16:17:11.528Z,100837.48
2022-10-23T16:19:44.255Z,100841.35
2022-10-23T16:22:17.823Z,100846.59
2022-10-23T16:24:50.343Z,100855.93
2022-10-23T16:27:22.930Z,100851.71
2022-10-23T16:29:55.675Z,100852.41
2022-10-23T16:32:28.017Z,100850.80
2022-10-23T16:35:00.379Z,100856.12
2022-10-23T16:37:42.392Z,100856.90
2022-10-23T16:40:20.555Z,100860.17
2022-10-23T16:43:12.998Z,100860.78
2022-10-23T16:45:49.611Z,100857.48
2022-10-23T16:48:22.295Z,100864.27
2022-10-23T16:50:55.223Z,100865.80
2022-10-23T16:53:31.780Z,100863.27
2022-10-23T16:56:07.582Z,100863.31
2022-10-23T16:58:43.346Z,100861.15
2022-10-23T17:01:24.923Z,100865.61
2022-10-23T17:03:58.125Z,100877.75
2022-10-23T17:06:33.321Z,100880.73
2022-10-23T17:09:07.861Z,100885.98
2022-10-23T17:11:43.163Z,100883.91
2022-10-23T17:14:27.072Z,100884.84
2022-10-23T17:17:04.072Z,100889.22
2022-10-23T17:19:45.253Z,100893.21
2022-10-23T17:22:20.455Z,100893.98
2022-10-23T17:24:54.228Z,100895.13
2022-10-23T17:27:27.137Z,100897.42
2022-10-23T17:29:59.914Z,100896.11
2022-10-23T17:32:32.843Z,100903.67
2022-10-23T17:35:08.045Z,100906.30
2022-10-23T17:37:40.939Z,100901.70
2022-10-23T17:40:13.784Z,100909.34
2022-10-23T17:42:46.347Z,100910.02
2022-10-23T17:45:19.270Z,100904.64
2022-10-23T17:47:52.027Z,100901.68
2022-10-23T17:50:24.430Z,100900.78
2022-10-23T17:52:57.163Z,100908.06
2022-10-23T17:55:30.461Z,100904.92
2022-10-23T17:58:03.102Z,100904.90
2022-10-23T18:00:37.267Z,100906.63
2022-10-23T18:03:10.044Z,100905.41
2022-10-23T18:05:42.428Z,100904.52
2022-10-23T18:08:15.389Z,100913.87
2022-10-23T18:10:47.964Z,100917.08
2022-10-23T18:13:20.632Z,100913.86
2022-10-23T18:15:52.910Z,100917.51
2022-10-23T18:18:25.258Z,100916.14
2022-10-23T18:20:59.499Z,100922.78
2022-10-23T18:23:32.980Z,100927.20
2022-10-23T18:26:07.113Z,100925.98
2022-10-23T18:28:39.785Z,100929.27
2022-10-23T18:31:12.881Z,100927.56
2022-10-23T18:33:45.572Z,100926.38
2022-10-23T18:36:21.981Z,100927.46
2022-10-23T18:41:43.128Z,100931.79
2022-10-23T18:44:19.230Z,100931.22
2022-10-23T18:46:52.691Z,100928.58
2022-10-23T18:49:25.304Z,100926.16
2022-10-23T18:51:58.914Z,100922.00
2022-10-23T18:54:32.152Z,100933.48
2022-10-23T18:57:04.644Z,100936.42
2022-10-23T18:59:37.119Z,100936.69
2022-10-23T19:02:09.925Z,100929.59
2022-10-23T19:04:42.659Z,100936.86
2022-10-23T19:07:15.168Z,100932.39
2022-10-23T19:09:47.622Z,100940.74
2022-10-23T19:12:20.504Z,100941.41
2022-10-23T19:14:55.287Z,100942.73
2022-10-23T19:17:31.953Z,100946.11
2022-10-23T19:20:15.145Z,100948.13
2022-10-23T19:22:51.061Z,100944.27
2022-10-23T19:25:28.225Z,100941.34
2022-10-23T19:28:02.157Z,100933.02
2022-10-23T19:30:36.269Z,100939.38
2022-10-23T19:33:08.789Z,100943.66
2022-10-23T19:35:41.376Z,100943.87
2022-10-23T19:38:13.872Z,100944.78
2022-10-23T19:40:46.539Z,100944.45
2022-10-23T19:43:19.256Z,100946.43
2022-10-23T19:45:51.886Z,100948.61
2022-10-23T19:48:24.443Z,100952.23
2022-10-23T19:50:56.940Z,100957.13
2022-10-23T19:53:29.524Z,100958.58
2022-10-23T19:56:10.048Z,100953.39
2022-10-23T19:58:42.942Z,100955.90
2022-10-23T20:01:17.924Z,100962.69
2022-10-23T20:03:50.492Z,100959.67
2022-10-23T20:06:26.401Z,100956.62
2022-10-23T20:08:58.863Z,100964.05
2022-10-23T20:11:33.316Z,100966.45
2022-10-23T20:14:06.181Z,100966.96
2022-10-23T20:16:40.897Z,100964.86
2022-10-23T20:19:15.015Z,100972.52
2022-10-23T20:21:49.045Z,100966.34
2022-10-23T20:24:22.294Z,100978.77
2022-10-23T20:26:56.174Z,100978.90
2022-10-23T20:29:28.757Z,100980.33
2022-10-23T20:32:00.952Z,100985.05
2022-10-23T20:34:33.689Z,100987.64
2022-10-23T20:37:06.301Z,100988.29
2022-10-23T20:39:40.131Z,100984.70
2022-10-23T20:42:12.628Z,100981.49
2022-10-23T20:44:45.167Z,100982.30
2022-10-23T20:47:17.563Z,100981.87
2022-10-23T20:49:49.982Z,100979.20
2022-10-23T20:52:22.459Z,100977.77
2022-10-23T20:54:54.900Z,100980.95
2022-10-23T20:57:27.297Z,100980.20
2022-10-23T20:59:59.690Z,100976.94
2022-10-23T21:02:33.574Z,100980.07
2022-10-23T21:05:06.646Z,100983.79
2022-10-23T21:07:39.393Z,100982.34
2022-10-23T21:10:12.070Z,100980.71
2022-10-23T21:12:45.186Z,100981.00
2022-10-23T21:15:18.412Z,100980.80
2022-10-23T21:17:54.775Z,100975.97
2022-10-23T21:20:27.520Z,100973.50
2022-10-23T21:23:00.376Z,100965.57
2022-10-23T21:25:33.289Z,100962.50
2022-10-23T21:28:06.629Z,100969.48
2022-10-23T21:30:41.566Z,100966.56
2022-10-23T21:33:14.672Z,100965.39
2022-10-23T21:35:57.991Z,100964.61
2022-10-23T21:38:39.819Z,100966.34
2022-10-23T21:41:15.788Z,100969.26
2022-10-23T21:43:49.118Z,100974.46
2022-10-23T21:46:22.170Z,100978.60
2022-10-23T21:48:55.400Z,100975.85
2022-10-23T21:51:35.858Z,100967.25
2022-10-23T21:54:10.398Z,100971.26
2022-10-23T21:56:51.840Z,100984.14
2022-10-23T21:59:30.093Z,100987.68
2022-10-23T22:02:05.264Z,100991.56
2022-10-23T22:04:38.505Z,100988.98
2022-10-23T22:07:15.659Z,100987.09
2022-10-23T22:09:48.681Z,100985.38
2022-10-23T22:12:21.730Z,100985.21
2022-10-23T22:14:55.032Z,100990.91
2022-10-23T22:17:27.981Z,100993.72
2022-10-23T22:20:00.980Z,100993.42
2022-10-23T22:22:33.809Z,100996.33
2022-10-23T22:25:07.012Z,100998.77
2022-10-23T22:27:43.154Z,100987.89
2022-10-23T22:30:16.278Z,100976.23
2022-10-23T22:32:49.350Z,100983.98
2022-10-23T22:35:22.529Z,100993.23
2022-10-23T22:37:55.309Z,100993.84
2022-10-23T22:40:28.648Z,100992.36
2022-10-23T22:43:02.030Z,100991.21
2022-10-23T22:45:34.393Z,100988.58
2022-10-23T22:48:08.782Z,100990.84
2022-10-23T22:50:41.573Z,100988.11
2022-10-23T22:53:17.280Z,100981.65
2022-10-23T22:55:50.228Z,100985.58
2022-10-23T22:58:22.867Z,100986.30
2022-10-23T23:01:04.078Z,100985.44
2022-10-23T23:03:38.538Z,100977.17
2022-10-23T23:06:11.799Z,100972.27
2022-10-23T23:08:44.793Z,100981.67
2022-10-23T23:11:19.003Z,100980.02
2022-10-23T23:13:51.524Z,100980.63
2022-10-23T23:16:28.460Z,100986.08
2022-10-23T23:19:05.071Z,100986.90
2022-10-23T23:21:37.644Z,100987.08
2022-10-23T23:24:11.845Z,100987.81
2022-10-23T23:26:44.730Z,100990.17
2022-10-23T23:29:18.020Z,100986.68
2022-10-23T23:31:50.598Z,100993.89
2022-10-23T23:34:23.072Z,100994.86
2022-10-23T23:36:55.876Z,100998.52
2022-10-23T23:39:28.839Z,101001.59
2022-10-23T23:42:01.719Z,100991.99
2022-10-23T23:44:38.950Z,100994.75
2022-10-23T23:47:19.550Z,100996.95
2022-10-23T23:49:51.977Z,101000.69
2022-10-23T23:52:24.540Z,101000.46
2022-10-23T23:54:56.995Z,101008.02
2022-10-23T23:57:31.205Z,101015.52
